createdAt,value
2022-10-11T00:02:00.027Z,79.61
2022-10-11T00:06:03.825Z,79.90
2022-10-11T00:10:07.363Z,79.49
2022-10-11T00:14:09.022Z,78.20
2022-10-11T00:18:10.615Z,78.42
2022-10-11T00:22:12.248Z,77.84
2022-10-11T00:26:14.242Z,76.85
2022-10-11T00:30:15.789Z,77.09
2022-10-11T00:34:18.119Z,76.64
2022-10-11T00:38:20.259Z,76.51
2022-10-11T00:42:22.224Z,76.40
2022-10-11T00:46:30.057Z,75.79
2022-10-11T00:50:35.479Z,76.11
2022-10-11T00:54:41.872Z,76.11
2022-10-11T00:58:43.970Z,75.99
2022-10-11T01:02:46.347Z,76.23
2022-10-11T01:06:49.535Z,75.78
2022-10-11T01:10:51.959Z,75.98
2022-10-11T01:15:08.757Z,75.81
2022-10-11T01:19:35.027Z,75.51
2022-10-11T01:24:10.548Z,75.53
2022-10-11T01:28:26.506Z,75.52
2022-10-11T01:32:34.770Z,75.89
2022-10-11T01:36:42.462Z,75.79
2022-10-11T01:40:52.624Z,75.86
2022-10-11T01:44:55.443Z,75.30
2022-10-11T01:49:01.055Z,75.32
2022-10-11T01:53:30.728Z,75.37
2022-10-11T01:57:45.396Z,75.44
2022-10-11T02:02:22.413Z,75.50
2022-10-11T02:06:47.412Z,75.94
2022-10-11T02:11:01.775Z,75.41
2022-10-11T02:15:08.972Z,75.85
2022-10-11T02:19:15.056Z,75.56
2022-10-11T02:23:23.388Z,75.30
2022-10-11T02:27:29.507Z,75.61
2022-10-11T02:31:35.535Z,75.83
2022-10-11T02:35:40.831Z,75.69
2022-10-11T02:40:26.674Z,75.47
2022-10-11T02:44:42.565Z,75.60
2022-10-11T02:48:44.232Z,75.40
2022-10-11T02:52:45.829Z,75.95
2022-10-11T02:56:47.373Z,75.99
2022-10-11T03:00:49.235Z,75.87
2022-10-11T03:04:50.773Z,75.32
2022-10-11T03:08:52.471Z,75.14
2022-10-11T03:12:54.043Z,74.73
2022-10-11T03:16:56.722Z,74.44
2022-10-11T03:21:02.277Z,73.83
2022-10-11T03:25:04.968Z,73.73
2022-10-11T03:29:06.692Z,73.94
2022-10-11T03:33:08.362Z,73.14
2022-10-11T03:37:10.082Z,72.29
2022-10-11T03:41:11.939Z,72.01
2022-10-11T03:45:14.417Z,71.31
2022-10-11T03:49:16.099Z,71.14
2022-10-11T03:53:17.761Z,70.70
2022-10-11T03:57:19.854Z,70.67
2022-10-11T04:01:21.425Z,69.97
2022-10-11T04:05:22.964Z,68.73
2022-10-11T04:09:24.647Z,67.57
2022-10-11T04:13:26.338Z,67.42
2022-10-11T04:17:27.980Z,67.21
2022-10-11T04:21:29.642Z,67.15
2022-10-11T04:25:31.215Z,66.66
2022-10-11T04:29:33.276Z,66.65
2022-10-11T04:33:34.860Z,66.75
2022-10-11T04:37:37.041Z,66.43
2022-10-11T04:41:38.750Z,66.47
2022-10-11T04:45:40.466Z,66.33
2022-10-11T04:49:42.035Z,66.89
2022-10-11T04:53:43.881Z,67.22
2022-10-11T04:57:45.560Z,66.95
2022-10-11T05:01:47.526Z,67.27
2022-10-11T05:05:49.627Z,67.40
2022-10-11T05:09:51.243Z,66.91
2022-10-11T05:13:53.049Z,67.38
2022-10-11T05:17:54.781Z,67.49
2022-10-11T05:21:57.313Z,68.20
2022-10-11T05:25:59.664Z,68.46
2022-10-11T05:30:01.941Z,68.32
2022-10-11T05:34:03.568Z,68.71
2022-10-11T05:38:05.198Z,69.42
2022-10-11T05:42:09.896Z,69.34
2022-10-11T05:46:12.744Z,69.50
2022-10-11T05:50:14.897Z,70.04
2022-10-11T05:54:16.529Z,70.53
2022-10-11T05:58:18.616Z,70.86
2022-10-11T06:02:20.886Z,71.33
2022-10-11T06:06:23.026Z,71.55
2022-10-11T06:10:25.243Z,71.92
2022-10-11T06:14:27.149Z,71.72
2022-10-11T06:18:28.865Z,70.99
2022-10-11T06:22:30.622Z,68.16
2022-10-11T06:26:32.683Z,66.49
2022-10-11T06:30:34.549Z,65.14
2022-10-11T06:34:36.222Z,63.62
2022-10-11T06:38:42.294Z,63.21
2022-10-11T06:42:49.608Z,61.36
2022-10-11T06:46:51.469Z,60.35
2022-10-11T06:51:00.078Z,60.38
2022-10-11T06:55:02.183Z,60.01
2022-10-11T06:59:03.855Z,58.81
2022-10-11T07:03:05.563Z,57.46
2022-10-11T07:07:07.119Z,55.44
2022-10-11T07:11:14.349Z,57.66
2022-10-11T07:15:16.003Z,56.89
2022-10-11T07:19:17.765Z,57.05
2022-10-11T07:23:19.302Z,56.54
2022-10-11T07:27:23.073Z,56.25
2022-10-11T07:31:26.316Z,54.63
2022-10-11T07:35:27.909Z,51.49
2022-10-11T07:39:31.028Z,52.27
2022-10-11T07:43:33.333Z,51.25
2022-10-11T07:47:34.920Z,47.80
2022-10-11T07:51:36.520Z,49.40
2022-10-11T07:55:42.411Z,48.18
2022-10-11T07:59:49.265Z,47.05
2022-10-11T08:03:52.711Z,47.32
2022-10-11T08:07:54.918Z,45.19
2022-10-11T08:11:56.488Z,45.00
2022-10-11T08:15:58.383Z,44.70
2022-10-11T08:20:00.031Z,42.44
2022-10-11T08:24:03.688Z,39.02
2022-10-11T08:28:05.523Z,38.47
2022-10-11T08:32:11.870Z,38.12
2022-10-11T08:36:13.883Z,36.34
2022-10-11T08:40:19.140Z,34.53
2022-10-11T08:45:09.645Z,34.58
2022-10-11T08:49:08.039Z,36.12
2022-10-11T08:53:21.617Z,32.61
2022-10-11T08:57:27.379Z,30.72
2022-10-11T09:01:31.019Z,31.57
2022-10-11T09:05:36.406Z,30.82
2022-10-11T09:10:02.006Z,28.13
2022-10-11T09:14:48.829Z,29.62
2022-10-11T09:19:18.208Z,27.42
2022-10-11T09:23:35.536Z,25.54
2022-10-11T09:28:04.090Z,24.64
2022-10-11T09:32:16.156Z,25.25
2022-10-11T09:36:55.127Z,25.65
2022-10-11T09:41:22.935Z,24.81
2022-10-11T09:45:24.680Z,27.67
2022-10-11T09:49:36.995Z,20.17
2022-10-11T09:54:05.347Z,22.69
2022-10-11T09:58:28.556Z,22.89
2022-10-11T10:03:20.765Z,21.52
2022-10-11T10:07:23.244Z,20.58
2022-10-11T10:11:24.871Z,23.28
2022-10-11T10:15:30.184Z,30.61
2022-10-11T10:19:44.808Z,30.43
2022-10-11T10:23:54.688Z,26.45
2022-10-11T10:28:01.884Z,24.35
2022-10-11T10:32:15.000Z,19.09
2022-10-11T10:36:22.181Z,16.42
2022-10-11T10:40:39.098Z,16.50
2022-10-11T10:44:40.862Z,21.27
2022-10-11T10:49:48.362Z,23.56
2022-10-11T10:53:32.998Z,27.22
2022-10-11T10:57:46.014Z,30.08
2022-10-11T11:02:28.047Z,31.77
2022-10-11T11:06:48.783Z,28.85
2022-10-11T11:11:18.081Z,29.36
2022-10-11T11:15:47.965Z,31.92
2022-10-11T11:20:24.749Z,32.33
2022-10-11T11:24:45.047Z,33.28
2022-10-11T11:28:58.811Z,23.03
2022-10-11T11:33:03.188Z,19.34
2022-10-11T11:37:13.916Z,16.05
2022-10-11T11:41:28.231Z,14.66
2022-10-11T11:45:51.170Z,12.73
2022-10-11T11:50:02.688Z,14.78
2022-10-11T11:54:18.206Z,16.18
2022-10-11T11:58:50.171Z,13.28
2022-10-11T12:02:54.562Z,11.93
2022-10-11T12:07:22.389Z,11.70
2022-10-11T12:11:38.353Z,11.55
2022-10-11T12:15:53.013Z,10.96
2022-10-11T12:20:05.161Z,10.00
2022-10-11T12:24:15.568Z,10.05
2022-10-11T12:28:42.557Z,9.08
2022-10-11T12:32:44.117Z,7.80
2022-10-11T12:36:50.800Z,7.85
2022-10-11T12:40:56.962Z,10.78
2022-10-11T12:45:10.627Z,10.32
2022-10-11T12:49:45.044Z,12.10
2022-10-11T12:54:36.932Z,11.75
2022-10-11T12:58:43.831Z,14.29
2022-10-11T13:02:46.685Z,11.57
2022-10-11T13:07:01.083Z,13.73
2022-10-11T13:11:11.719Z,14.85
2022-10-11T13:15:17.489Z,13.01
2022-10-11T13:19:23.212Z,11.02
2022-10-11T13:23:26.440Z,11.64
2022-10-11T13:27:28.445Z,12.26
2022-10-11T13:31:30.092Z,14.53
2022-10-11T13:35:35.270Z,12.21
2022-10-11T13:39:39.075Z,11.12
2022-10-11T13:43:41.002Z,13.61
2022-10-11T13:47:42.755Z,13.89
2022-10-11T13:51:56.911Z,14.20
2022-10-11T13:56:07.884Z,17.28
2022-10-11T14:00:10.981Z,19.58
2022-10-11T14:04:17.096Z,16.50
2022-10-11T14:08:43.115Z,15.80
2022-10-11T14:12:56.822Z,16.44
2022-10-11T14:17:11.372Z,16.95
2022-10-11T14:21:38.389Z,14.96
2022-10-11T14:25:54.147Z,18.89
2022-10-11T14:30:45.693Z,18.47
2022-10-11T14:34:50.449Z,21.75
2022-10-11T14:38:54.062Z,25.42
2022-10-11T14:42:57.668Z,26.92
2022-10-11T14:47:30.202Z,27.85
2022-10-11T14:57:32.069Z,29.23
2022-10-11T15:01:33.913Z,30.51
2022-10-11T15:05:36.409Z,30.64
2022-10-11T15:09:38.180Z,32.12
2022-10-11T15:13:39.652Z,33.57
2022-10-11T15:17:41.232Z,34.26
2022-10-11T15:21:42.990Z,35.49
2022-10-11T15:25:44.767Z,35.05
2022-10-11T15:29:47.110Z,35.79
2022-10-11T15:33:49.726Z,36.61
2022-10-11T15:37:57.843Z,35.79
2022-10-11T15:42:00.245Z,37.23
2022-10-11T15:46:02.261Z,37.77
2022-10-11T15:50:13.572Z,38.58
2022-10-11T15:54:15.164Z,38.84
2022-10-11T15:58:24.817Z,39.40
2022-10-11T16:02:26.608Z,40.27
2022-10-11T16:06:28.360Z,40.71
2022-10-11T16:10:30.101Z,41.83
2022-10-11T16:14:31.811Z,42.25
2022-10-11T16:18:36.243Z,43.00
2022-10-11T16:22:38.829Z,43.93
2022-10-11T16:26:42.428Z,44.23
2022-10-11T16:31:11.015Z,45.10
2022-10-11T16:35:27.924Z,45.95
2022-10-11T16:39:33.698Z,46.88
2022-10-11T16:43:37.349Z,47.42
2022-10-11T16:48:29.014Z,48.28
2022-10-11T16:52:31.231Z,49.36
2022-10-11T16:56:38.889Z,50.18
2022-10-11T17:00:48.426Z,50.79
2022-10-11T17:04:53.950Z,51.53
2022-10-11T17:08:56.130Z,52.85
2022-10-11T17:12:57.737Z,53.49
2022-10-11T17:16:59.328Z,54.13
2022-10-11T17:21:07.219Z,54.91
2022-10-11T17:25:08.786Z,55.12
2022-10-11T17:30:01.708Z,56.03
2022-10-11T17:34:06.030Z,56.40
2022-10-11T17:38:12.277Z,57.48
2022-10-11T17:42:39.035Z,57.46
2022-10-11T17:47:07.005Z,58.39
2022-10-11T17:51:11.551Z,58.68
2022-10-11T17:55:44.471Z,59.74
2022-10-11T17:59:46.002Z,60.92
2022-10-11T18:04:04.171Z,61.34
2022-10-11T18:08:06.745Z,61.41
2022-10-11T18:12:12.385Z,61.92
2022-10-11T18:16:19.905Z,61.85
2022-10-11T18:20:22.352Z,62.42
2022-10-11T18:25:14.994Z,62.19
2022-10-11T18:29:18.221Z,62.19
2022-10-11T18:33:22.800Z,62.34
2022-10-11T18:37:24.961Z,62.91
2022-10-11T18:41:30.728Z,63.17
2022-10-11T18:45:32.451Z,63.87
2022-10-11T18:49:34.192Z,64.54
2022-10-11T18:53:36.818Z,64.03
2022-10-11T18:57:38.538Z,64.16
2022-10-11T19:01:43.997Z,64.53
2022-10-11T19:05:45.829Z,65.26
2022-10-11T19:09:48.151Z,64.83
2022-10-11T19:13:56.522Z,64.56
2022-10-11T19:18:25.771Z,64.33
2022-10-11T19:22:28.325Z,65.28
2022-10-11T19:26:39.470Z,65.64
2022-10-11T19:30:43.684Z,65.35
2022-10-11T19:34:45.357Z,65.47
2022-10-11T19:38:52.027Z,66.95
2022-10-11T19:42:53.824Z,66.88
2022-10-11T19:46:55.517Z,67.79
2022-10-11T19:51:09.348Z,67.65
2022-10-11T19:55:11.039Z,67.73
2022-10-11T19:59:14.519Z,68.53
2022-10-11T20:03:17.742Z,68.13
2022-10-11T20:07:20.554Z,68.56
2022-10-11T20:11:23.120Z,68.63
2022-10-11T20:15:25.986Z,68.92
2022-10-11T20:19:31.176Z,69.06
2022-10-11T20:29:59.944Z,70.07
2022-10-11T20:34:03.995Z,70.06
2022-10-11T20:38:05.906Z,70.01
2022-10-11T20:42:07.516Z,70.40
2022-10-11T20:46:12.279Z,70.35
2022-10-11T20:50:43.838Z,70.40
2022-10-11T20:54:45.837Z,70.80
2022-10-11T20:59:22.214Z,71.22
2022-10-11T21:09:25.683Z,71.73
2022-10-11T21:13:27.365Z,72.43
2022-10-11T21:17:29.124Z,72.68
2022-10-11T21:21:30.936Z,72.44
2022-10-11T21:25:33.346Z,72.44
2022-10-11T21:29:34.809Z,72.48
2022-10-11T21:33:37.045Z,73.10
2022-10-11T21:37:38.513Z,72.94
2022-10-11T21:41:42.177Z,73.83
2022-10-11T21:45:43.751Z,74.17
2022-10-11T21:49:45.517Z,73.54
2022-10-11T21:53:56.055Z,73.75
2022-10-11T21:57:57.905Z,73.77
2022-10-11T22:07:55.339Z,74.23
2022-10-11T22:11:57.329Z,74.23
2022-10-11T22:16:08.001Z,74.40
2022-10-11T22:20:09.739Z,74.60
2022-10-11T22:24:11.885Z,74.46
2022-10-11T22:28:13.814Z,74.95
2022-10-11T22:32:50.384Z,75.08
2022-10-11T22:37:41.824Z,74.89
2022-10-11T22:41:43.605Z,74.96
2022-10-11T22:45:45.393Z,75.38
2022-10-11T22:49:47.004Z,75.05
2022-10-11T22:53:48.672Z,76.44
2022-10-11T22:57:50.160Z,76.59
2022-10-11T23:01:51.611Z,76.83
2022-10-11T23:05:57.215Z,76.83
2022-10-11T23:09:58.870Z,76.30
2022-10-11T23:14:00.422Z,76.63
2022-10-11T23:18:01.910Z,76.70
2022-10-11T23:22:03.766Z,76.97
2022-10-11T23:26:12.346Z,76.86
2022-10-11T23:30:14.534Z,76.58
2022-10-11T23:34:16.035Z,76.71
2022-10-11T23:38:17.681Z,76.95
2022-10-11T23:42:19.199Z,77.09
2022-10-11T23:46:20.768Z,77.23
2022-10-11T23:50:22.311Z,77.34
2022-10-11T23:54:23.895Z,77.00
2022-10-11T23:58:25.464Z,77.78
